Terminal Aerodrome Forecast
Issued by NWS

Home | Current Version | Previous Version | Text Only | Print | Product List | Glossary On
Versions: 1 2 3 4 5 6 7 8 9
423
FTUS42 KTBW 241125
TAFLAL
TAF
KLAL 241125Z 2412/2512 VRB05KT P6SM BKN020 OVC030
     FM241500 28009KT P6SM BKN025 OVC040
     FM241700 27013G18KT P6SM BKN025 BKN050
     FM242200 28015G21KT P6SM FEW045 SCT060
     FM250000 28011G16KT P6SM FEW045 SCT060
     FM250300 27008KT P6SM FEW025 SCT110=

USA.gov is the U.S. government's official web portal to all federal, state and local government web resources and services.